Ghotki Weather



Ghotki's Current Weather

Temprature 29o haze

haze

Rain: 0 %

Min Temprature29o
Max Temprature29o
Humidity79
Wind Speed4.08 m/h
Sun Rise05:56:45
Sun Set18:54:39
Current Time: 23-Aug-2019 05:20:18
Lat/Lon: 28.01, 69.32




Ghotki's Geo Location



Ghotki's Weather Forecast

Time Overall Temp Min Temp Max Temp Humidity Wind Speed Rain
23-Aug-2019 (Fri)
08:00:00 clear sky 32.120 32.120 32.317 50 6.97 m/h 0 %
11:00:00 clear sky 39.600 39.600 39.750 26 5.47 m/h 0 %
14:00:00 clear sky 42.930 42.930 43.031 16 3.68 m/h 0 %
17:00:00 clear sky 43.460 43.460 43.511 13 3.73 m/h 0 %
20:00:00 clear sky 38.050 38.050 38.050 20 6.66 m/h 0 %
23:00:00 clear sky 35.142 35.142 35.142 35 6.38 m/h 0 %
24-Aug-2019 (Sat)
02:00:00 clear sky 32.231 32.231 32.231 48 6.75 m/h 0 %
05:00:00 clear sky 30.855 30.855 30.855 50 6.14 m/h 0 %
08:00:00 clear sky 33.887 33.887 33.887 37 6.3 m/h 0 %
11:00:00 clear sky 40.269 40.269 40.269 21 5.59 m/h 0 %
14:00:00 clear sky 43.069 43.069 43.069 16 5.14 m/h 0 %
17:00:00 clear sky 42.623 42.623 42.623 16 4.94 m/h 0 %
20:00:00 clear sky 37.450 37.450 37.450 21 6.09 m/h 0 %
23:00:00 clear sky 34.169 34.169 34.169 39 6.18 m/h 0 %
25-Aug-2019 (Sun)
02:00:00 clear sky 30.431 30.431 30.431 59 5.56 m/h 0 %
05:00:00 clear sky 28.957 28.957 28.957 62 4.14 m/h 0 %
08:00:00 clear sky 31.514 31.514 31.514 51 5.62 m/h 0 %
11:00:00 clear sky 38.416 38.416 38.416 28 5.1 m/h 0 %
14:00:00 clear sky 41.750 41.750 41.750 20 4.16 m/h 0 %
17:00:00 clear sky 42.050 42.050 42.050 18 3.66 m/h 0 %
20:00:00 clear sky 37.381 37.381 37.381 24 6.39 m/h 0 %
23:00:00 clear sky 34.011 34.011 34.011 42 6.81 m/h 0 %
26-Aug-2019 (Mon)
02:00:00 clear sky 30.565 30.565 30.565 57 5 m/h 0 %
05:00:00 clear sky 29.450 29.450 29.450 59 4.73 m/h 0 %
08:00:00 clear sky 32.667 32.667 32.667 42 4.59 m/h 0 %
11:00:00 scattered clouds 39.372 39.372 39.372 24 4.29 m/h 0 %
14:00:00 overcast clouds 43.184 43.184 43.184 17 3.06 m/h 0 %
17:00:00 broken clouds 43.720 43.720 43.720 15 3.07 m/h 0 %
20:00:00 broken clouds 38.272 38.272 38.272 22 4.79 m/h 0 %
23:00:00 overcast clouds 35.314 35.314 35.314 33 5.7 m/h 0 %
27-Aug-2019 (Tue)
02:00:00 overcast clouds 33.216 33.216 33.216 42 4.05 m/h 0 %
05:00:00 overcast clouds 31.450 31.450 31.450 48 2.18 m/h 0 %
08:00:00 overcast clouds 34.535 34.535 34.535 43 2.62 m/h 0 %
11:00:00 broken clouds 43.536 43.536 43.536 19 0.6 m/h 0 %
14:00:00 clear sky 47.336 47.336 47.336 11 4.98 m/h 0 %
17:00:00 scattered clouds 46.065 46.065 46.065 11 5.46 m/h 0 %
20:00:00 scattered clouds 38.250 38.250 38.250 24 5.97 m/h 0 %
23:00:00 scattered clouds 36.950 36.950 36.950 26 4.47 m/h 0 %
28-Aug-2019 (Wed)
02:00:00 scattered clouds 35.057 35.057 35.057 30 3.17 m/h 0 %
05:00:00 broken clouds 33.472 33.472 33.472 39 3.19 m/h 0 %

Famous Cities (61)